CDT,Max TemperatureF,Mean TemperatureF,Min TemperatureF,Max Dew PointF,MeanDew PointF,Min DewpointF,Max Humidity, Mean Humidity, Min Humidity, Max Sea Level PressureIn, Mean Sea Level PressureIn, Min Sea Level PressureIn, Max VisibilityMiles, Mean VisibilityMiles, Min VisibilityMiles, Max Wind SpeedMPH, Mean Wind SpeedMPH, Max Gust SpeedMPH,PrecipitationIn, CloudCover, Events, WindDirDegrees
2012-9-1,82,68,55,52,46,43,72,48,25,30.18,30.12,30.04,10,8,0,12,6,17,0.00,0,,90
2012-9-2,86,70,53,64,57,48,88,64,43,30.06,29.97,29.86,10,10,10,15,5,20,0.00,0,,143
2012-9-3,87,76,64,68,59,43,100,61,21,29.92,29.89,29.87,10,10,7,9,5,,0.00,1,Rain,172
2012-9-4,89,74,60,70,60,46,100,70,25,29.91,29.83,29.76,10,7,0,16,4,23,0.00,1,Fog,196
2012-9-5,78,66,53,59,51,45,100,60,32,29.90,29.83,29.75,10,10,7,16,5,26,0.04,1,Rain,325
2012-9-6,78,61,44,59,48,41,100,66,28,29.98,29.94,29.89,10,10,7,9,2,,0.01,3,Rain,257
2012-9-7,68,59,50,57,50,41,100,76,40,30.02,29.97,29.91,10,10,3,16,6,28,0.16,6,Rain,337
2012-9-8,73,58,42,50,44,37,100,68,31,30.03,29.93,29.79,10,10,10,24,8,33,0.00,2,,291
2012-9-9,71,58,46,52,46,39,100,70,33,30.19,30.13,30.03,10,10,10,9,5,,0.00,1,,332
2012-9-10,80,63,46,48,45,41,93,54,24,30.11,29.99,29.86,10,10,10,22,9,30,0.00,0,,179
2012-9-11,91,75,59,52,47,43,72,40,18,29.87,29.81,29.73,10,10,10,29,14,37,0.00,0,,187
2012-9-12,75,62,50,54,50,45,100,79,36,30.24,30.12,29.85,10,10,2,13,6,21,0.03,5,Rain,244
2012-9-13,71,60,48,52,40,23,100,62,16,30.34,30.29,30.24,10,9,0,15,4,24,0.01,1,Fog,269
2012-9-14,71,55,39,41,36,27,93,51,19,30.35,30.31,30.27,10,10,10,8,3,,0.00,0,,3
2012-9-15,80,63,46,45,40,37,81,48,21,30.27,30.12,29.98,10,10,10,15,7,24,0.00,0,,172
2012-9-16,77,68,59,54,48,41,68,53,39,29.98,29.92,29.87,10,10,10,16,10,22,0.00,0,,241
2012-9-17,60,51,42,50,40,30,100,65,34,29.99,29.96,29.90,10,10,7,17,8,24,0.02,5,Rain,335
2012-9-18,59,47,35,37,32,23,100,61,27,30.02,29.98,29.90,10,10,10,13,5,22,0.00,2,,306
2012-9-19,71,58,44,46,38,32,87,53,27,29.90,29.75,29.63,10,10,10,24,11,32,0.01,4,Rain,227
2012-9-20,62,52,42,43,35,30,81,53,30,29.89,29.86,29.81,10,10,10,23,9,33,0.00,3,Rain,287
2012-9-21,59,49,37,46,41,36,100,77,45,29.88,29.83,29.78,10,10,5,24,5,34,0.00,6,Rain,287
2012-9-22,53,43,33,41,34,30,100,74,44,30.22,30.09,29.85,10,10,3,20,12,26,0.00,5,Rain-Snow,327
2012-9-23,55,44,32,37,31,27,100,70,33,30.30,30.24,30.14,10,10,10,13,4,20,0.12,2,,292
2012-9-24,73,54,35,37,33,30,87,52,22,30.14,29.90,29.74,10,10,10,22,9,29,0.00,0,,229
2012-9-25,64,50,35,41,35,28,100,60,27,29.97,29.88,29.77,10,10,10,10,5,,0.00,0,,14
2012-9-26,60,46,32,37,32,28,100,66,29,30.22,30.11,29.97,10,10,10,10,4,16,0.00,0,,28
2012-9-27,64,48,32,37,33,30,100,65,28,30.29,30.23,30.19,10,10,10,5,1,,0.00,0,,216
2012-9-28,73,52,32,41,35,30,100,60,22,30.22,30.17,30.10,10,10,10,7,1,,0.00,0,,250
2012-9-29,78,60,41,43,38,32,100,55,18,30.12,30.08,30.02,10,10,7,9,2,,0.00,0,,26
2012-9-30,73,56,39,41,35,28,87,52,19,30.05,29.98,29.89,10,10,2,6,2,,0.00,0,,105